Woodburn, OR

10:50 PM PST en Noviembre 27, 2014 (GMT -0800)
Woodburn City Hall | Change Station
CLOSE
Current Station
Estación meteorológica personal
Location: Woodburn, OR
Altura: 187 ft
Estaciones meteorológicas cercanas
Aviso en curso: Special Statement Aviso activo: Record Report

Alt 187 ft 45.14 °N, 122.86 °W | Updated 5 minutes ago

Nublado
Nublado
52.6 ° F
Sensación térmica 52.6 ° F
N
3.0
Viento Variable Viento desde NNO
Gusts 14.0 mph

Hoy
Alta -- | Baja -- ° F
--% Posibilidad de precipitaciones
Ayer
Alta -- | Baja -- ° F
Precip. -- pul
7:25 AM 4:32 PM
Creciente, 37% visible
Presión 29.86 pul
Visibilidad 10.0 Millas
Nubes Baja 1400 ft
Nublado 4300 ft
Punto de rocío 50 ° F
Humedad 92%
Precipitaciones 0.00 pul
Espesor de la nieve No disponible.
UV 0 de una escala de 12
Polen .10 de una escala de 12
Calidad del aire No disponible.
Flu Activity No disponible.
METAR KUAO 280553Z AUTO 19011G21KT 10SM FEW014 OVC043 12/10 A2986 RMK AO2 SLP110 T01220100 10128 20117 58011

More Conditions Fewer Conditions

Presión 29.86 pul
Visibilidad 10.0 Millas
Nubes Baja 1400 ft
Nublado 4300 ft
Punto de rocío 50 ° F
Humedad 92%
Precipitaciones 0.00 pul
Espesor de la nieve No disponible.
UV 0 de una escala de 12
Polen .10 de una escala de 12
Calidad del aire No disponible.
Flu Activity No disponible.
METAR KUAO 280553Z AUTO 19011G21KT 10SM FEW014 OVC043 12/10 A2986 RMK AO2 SLP110 T01220100 10128 20117 58011

More Conditions Fewer Conditions

10-Day Weather Forecast

Almanac

Astronomía

Nov. 27, 2014 Salida Puesta
Hora real
Crepúsculo civil
Crepúsculo náutico
Crepúsculo astronómico
Luna
Horas de luz
Horas de luz
Tomorrow will be .
, % of the Moon is Illuminated

Extremos de hoy

Máximos del estado Bajos del estado

Community

WunderPhotos

Upload Photos

1,774,194 ¡fotos cargadas!

WunderBlogs® & News

Nearby

Calidad del aire

  Calidad del aire Índice AQ Contaminante
Not available.

Grosos de nieve

Estación Profundido Altura

Actividad de terremotos

Ciudad Distance Mag. Tiempo y dato
Magnitud mínima muestra es 2,5.

Temperaturas de aguas costeras

Lugar Temperatura

Estaciones meteorológicas cercanas